Terminal Aerodrome Forecast
Issued by NWS

Home | Current Version | Previous Version | Text Only | Print | Product List | Glossary On
Versions: 1 2 3 4 5 6 7 8 9 10 11 12 13 14 15 16 17 18 19 20 21 22 23 24
000
FTUS45 KPSR 240500
TAFPHX
TAF
KPHX 240520Z 2406/2506 10005KT P6SM SKC
     FM242100 VRB04KT P6SM SKC
      TEMPO 2423/2503 27004KT=

USA.gov is the U.S. government's official web portal to all federal, state and local government web resources and services.